sensor_id;sensor_type;location;lat;lon;timestamp;P1;durP1;ratioP1;P2;durP2;ratioP2
10731;SDS011;5417;42.686;23.244;2023-01-23T00:00:13;4.90;;;4.60;;
10731;SDS011;5417;42.686;23.244;2023-01-23T00:02:41;5.07;;;4.50;;
10731;SDS011;5417;42.686;23.244;2023-01-23T00:05:08;4.67;;;4.33;;
10731;SDS011;5417;42.686;23.244;2023-01-23T00:07:35;4.00;;;3.70;;
10731;SDS011;5417;42.686;23.244;2023-01-23T00:10:02;3.97;;;3.67;;
10731;SDS011;5417;42.686;23.244;2023-01-23T00:12:30;4.13;;;3.90;;
10731;SDS011;5417;42.686;23.244;2023-01-23T00:14:58;3.97;;;3.67;;
10731;SDS011;5417;42.686;23.244;2023-01-23T00:17:25;4.07;;;3.77;;
10731;SDS011;5417;42.686;23.244;2023-01-23T00:19:52;3.93;;;3.63;;
10731;SDS011;5417;42.686;23.244;2023-01-23T00:22:19;4.40;;;4.10;;
10731;SDS011;5417;42.686;23.244;2023-01-23T00:24:46;4.27;;;3.97;;
10731;SDS011;5417;42.686;23.244;2023-01-23T00:27:13;4.60;;;4.30;;
10731;SDS011;5417;42.686;23.244;2023-01-23T00:29:40;5.03;;;4.63;;
10731;SDS011;5417;42.686;23.244;2023-01-23T00:32:08;4.83;;;4.40;;
10731;SDS011;5417;42.686;23.244;2023-01-23T00:34:36;4.70;;;4.40;;
10731;SDS011;5417;42.686;23.244;2023-01-23T00:37:03;5.47;;;4.97;;
10731;SDS011;5417;42.686;23.244;2023-01-23T00:39:31;4.83;;;4.53;;
10731;SDS011;5417;42.686;23.244;2023-01-23T00:41:57;5.27;;;4.90;;
10731;SDS011;5417;42.686;23.244;2023-01-23T00:44:24;4.47;;;4.23;;
10731;SDS011;5417;42.686;23.244;2023-01-23T00:46:51;5.00;;;4.60;;
10731;SDS011;5417;42.686;23.244;2023-01-23T00:49:20;4.97;;;4.67;;
10731;SDS011;5417;42.686;23.244;2023-01-23T00:51:46;6.07;;;5.47;;
10731;SDS011;5417;42.686;23.244;2023-01-23T00:54:14;5.47;;;5.00;;
10731;SDS011;5417;42.686;23.244;2023-01-23T00:56:41;5.73;;;5.23;;
10731;SDS011;5417;42.686;23.244;2023-01-23T00:59:08;5.50;;;5.10;;
10731;SDS011;5417;42.686;23.244;2023-01-23T01:01:35;5.67;;;5.10;;
10731;SDS011;5417;42.686;23.244;2023-01-23T01:04:01;4.97;;;4.67;;
10731;SDS011;5417;42.686;23.244;2023-01-23T01:06:30;6.20;;;4.87;;
10731;SDS011;5417;42.686;23.244;2023-01-23T01:08:57;4.70;;;4.30;;
10731;SDS011;5417;42.686;23.244;2023-01-23T01:11:24;4.50;;;4.20;;
10731;SDS011;5417;42.686;23.244;2023-01-23T01:13:51;4.60;;;4.20;;
10731;SDS011;5417;42.686;23.244;2023-01-23T01:16:20;4.50;;;4.20;;
10731;SDS011;5417;42.686;23.244;2023-01-23T01:18:48;5.00;;;3.87;;
10731;SDS011;5417;42.686;23.244;2023-01-23T01:21:15;3.90;;;3.60;;
10731;SDS011;5417;42.686;23.244;2023-01-23T01:23:44;4.27;;;3.97;;
10731;SDS011;5417;42.686;23.244;2023-01-23T01:26:11;4.93;;;4.47;;
10731;SDS011;5417;42.686;23.244;2023-01-23T01:28:39;4.33;;;3.77;;
10731;SDS011;5417;42.686;23.244;2023-01-23T01:31:08;3.87;;;3.50;;
10731;SDS011;5417;42.686;23.244;2023-01-23T01:33:37;3.67;;;3.40;;
10731;SDS011;5417;42.686;23.244;2023-01-23T01:36:07;2.90;;;2.70;;
10731;SDS011;5417;42.686;23.244;2023-01-23T01:38:35;3.90;;;3.60;;
10731;SDS011;5417;42.686;23.244;2023-01-23T01:41:03;3.20;;;2.90;;
10731;SDS011;5417;42.686;23.244;2023-01-23T01:43:31;3.50;;;3.20;;
10731;SDS011;5417;42.686;23.244;2023-01-23T01:48:59;3.10;;;2.90;;
10731;SDS011;5417;42.686;23.244;2023-01-23T01:51:31;3.20;;;2.97;;
10731;SDS011;5417;42.686;23.244;2023-01-23T01:54:04;3.63;;;3.33;;
10731;SDS011;5417;42.686;23.244;2023-01-23T01:56:36;3.10;;;2.90;;
10731;SDS011;5417;42.686;23.244;2023-01-23T01:59:06;2.80;;;2.60;;
10731;SDS011;5417;42.686;23.244;2023-01-23T02:01:35;3.50;;;3.30;;
10731;SDS011;5417;42.686;23.244;2023-01-23T02:04:03;2.80;;;2.70;;
10731;SDS011;5417;42.686;23.244;2023-01-23T02:06:30;3.30;;;3.10;;
10731;SDS011;5417;42.686;23.244;2023-01-23T02:08:59;3.60;;;3.33;;
10731;SDS011;5417;42.686;23.244;2023-01-23T02:11:30;3.27;;;3.07;;
10731;SDS011;5417;42.686;23.244;2023-01-23T02:13:58;3.60;;;3.30;;
10731;SDS011;5417;42.686;23.244;2023-01-23T02:16:26;3.70;;;3.40;;
10731;SDS011;5417;42.686;23.244;2023-01-23T02:18:56;3.57;;;3.27;;
10731;SDS011;5417;42.686;23.244;2023-01-23T02:21:25;3.67;;;3.37;;
10731;SDS011;5417;42.686;23.244;2023-01-23T02:26:45;4.10;;;3.70;;
10731;SDS011;5417;42.686;23.244;2023-01-23T02:29:13;3.43;;;3.23;;
10731;SDS011;5417;42.686;23.244;2023-01-23T02:31:40;3.40;;;3.10;;
10731;SDS011;5417;42.686;23.244;2023-01-23T02:34:10;3.37;;;3.10;;
10731;SDS011;5417;42.686;23.244;2023-01-23T02:36:38;3.90;;;3.60;;
10731;SDS011;5417;42.686;23.244;2023-01-23T02:39:11;3.73;;;3.43;;
10731;SDS011;5417;42.686;23.244;2023-01-23T02:41:40;3.87;;;3.60;;
10731;SDS011;5417;42.686;23.244;2023-01-23T02:44:10;3.60;;;3.40;;
10731;SDS011;5417;42.686;23.244;2023-01-23T02:46:40;4.43;;;4.03;;
10731;SDS011;5417;42.686;23.244;2023-01-23T02:49:07;4.27;;;3.97;;
10731;SDS011;5417;42.686;23.244;2023-01-23T02:51:34;3.50;;;3.20;;
10731;SDS011;5417;42.686;23.244;2023-01-23T02:54:01;3.53;;;3.23;;
10731;SDS011;5417;42.686;23.244;2023-01-23T02:56:28;4.23;;;3.77;;
10731;SDS011;5417;42.686;23.244;2023-01-23T02:58:55;3.40;;;3.20;;
10731;SDS011;5417;42.686;23.244;2023-01-23T03:01:41;4.03;;;3.70;;
10731;SDS011;5417;42.686;23.244;2023-01-23T03:04:07;3.97;;;3.57;;
10731;SDS011;5417;42.686;23.244;2023-01-23T03:06:35;3.70;;;3.40;;
10731;SDS011;5417;42.686;23.244;2023-01-23T03:09:03;4.33;;;3.87;;
10731;SDS011;5417;42.686;23.244;2023-01-23T03:11:32;3.20;;;3.00;;
10731;SDS011;5417;42.686;23.244;2023-01-23T03:14:00;3.67;;;3.47;;
10731;SDS011;5417;42.686;23.244;2023-01-23T03:16:27;5.10;;;4.70;;
10731;SDS011;5417;42.686;23.244;2023-01-23T03:18:55;3.97;;;3.67;;
10731;SDS011;5417;42.686;23.244;2023-01-23T03:21:25;3.60;;;3.30;;
10731;SDS011;5417;42.686;23.244;2023-01-23T03:23:52;3.73;;;3.43;;
10731;SDS011;5417;42.686;23.244;2023-01-23T03:26:19;4.20;;;3.80;;
10731;SDS011;5417;42.686;23.244;2023-01-23T03:28:46;3.43;;;3.10;;
10731;SDS011;5417;42.686;23.244;2023-01-23T03:31:30;3.10;;;2.90;;
10731;SDS011;5417;42.686;23.244;2023-01-23T03:33:58;4.10;;;3.80;;
10731;SDS011;5417;42.686;23.244;2023-01-23T03:36:25;4.03;;;3.10;;
10731;SDS011;5417;42.686;23.244;2023-01-23T03:38:52;3.43;;;3.17;;
10731;SDS011;5417;42.686;23.244;2023-01-23T03:41:36;3.50;;;3.20;;
10731;SDS011;5417;42.686;23.244;2023-01-23T03:44:06;3.40;;;3.20;;
10731;SDS011;5417;42.686;23.244;2023-01-23T03:46:34;2.90;;;2.70;;
10731;SDS011;5417;42.686;23.244;2023-01-23T03:49:02;2.80;;;2.60;;
10731;SDS011;5417;42.686;23.244;2023-01-23T03:51:29;2.43;;;2.33;;
10731;SDS011;5417;42.686;23.244;2023-01-23T03:53:55;3.00;;;2.80;;
10731;SDS011;5417;42.686;23.244;2023-01-23T03:56:22;2.87;;;2.77;;
10731;SDS011;5417;42.686;23.244;2023-01-23T03:58:49;3.10;;;2.90;;
10731;SDS011;5417;42.686;23.244;2023-01-23T04:01:16;3.03;;;2.83;;
10731;SDS011;5417;42.686;23.244;2023-01-23T04:03:44;3.80;;;3.50;;
10731;SDS011;5417;42.686;23.244;2023-01-23T04:06:12;3.00;;;2.80;;
10731;SDS011;5417;42.686;23.244;2023-01-23T04:08:39;3.40;;;3.20;;
10731;SDS011;5417;42.686;23.244;2023-01-23T04:11:08;3.43;;;3.13;;
10731;SDS011;5417;42.686;23.244;2023-01-23T04:13:36;3.33;;;3.13;;
10731;SDS011;5417;42.686;23.244;2023-01-23T04:16:04;3.27;;;3.07;;
10731;SDS011;5417;42.686;23.244;2023-01-23T04:18:32;3.93;;;3.63;;
10731;SDS011;5417;42.686;23.244;2023-01-23T04:20:59;4.20;;;3.80;;
10731;SDS011;5417;42.686;23.244;2023-01-23T04:23:27;3.63;;;3.33;;
10731;SDS011;5417;42.686;23.244;2023-01-23T04:25:54;4.10;;;3.80;;
10731;SDS011;5417;42.686;23.244;2023-01-23T04:28:21;4.03;;;3.73;;
10731;SDS011;5417;42.686;23.244;2023-01-23T04:30:48;3.50;;;3.30;;
10731;SDS011;5417;42.686;23.244;2023-01-23T04:33:17;3.93;;;3.70;;
10731;SDS011;5417;42.686;23.244;2023-01-23T04:35:48;4.07;;;3.67;;
10731;SDS011;5417;42.686;23.244;2023-01-23T04:38:16;3.77;;;3.47;;
10731;SDS011;5417;42.686;23.244;2023-01-23T04:40:44;3.80;;;3.50;;
10731;SDS011;5417;42.686;23.244;2023-01-23T04:43:12;3.37;;;3.10;;
10731;SDS011;5417;42.686;23.244;2023-01-23T04:45:39;3.80;;;3.50;;
10731;SDS011;5417;42.686;23.244;2023-01-23T04:48:06;3.20;;;2.90;;
10731;SDS011;5417;42.686;23.244;2023-01-23T04:50:33;2.90;;;2.70;;
10731;SDS011;5417;42.686;23.244;2023-01-23T04:53:00;3.37;;;3.17;;
10731;SDS011;5417;42.686;23.244;2023-01-23T04:55:27;3.30;;;3.10;;
10731;SDS011;5417;42.686;23.244;2023-01-23T04:57:55;3.27;;;3.07;;
10731;SDS011;5417;42.686;23.244;2023-01-23T05:00:22;3.13;;;2.93;;
10731;SDS011;5417;42.686;23.244;2023-01-23T05:02:49;2.93;;;2.73;;
10731;SDS011;5417;42.686;23.244;2023-01-23T05:05:16;2.60;;;2.50;;
10731;SDS011;5417;42.686;23.244;2023-01-23T05:07:45;2.60;;;2.50;;
10731;SDS011;5417;42.686;23.244;2023-01-23T05:10:12;3.00;;;2.80;;
10731;SDS011;5417;42.686;23.244;2023-01-23T05:12:39;2.67;;;2.50;;
10731;SDS011;5417;42.686;23.244;2023-01-23T05:15:09;3.20;;;2.83;;
10731;SDS011;5417;42.686;23.244;2023-01-23T05:17:36;3.37;;;3.13;;
10731;SDS011;5417;42.686;23.244;2023-01-23T05:20:04;3.50;;;3.20;;
10731;SDS011;5417;42.686;23.244;2023-01-23T05:22:32;3.47;;;3.27;;
10731;SDS011;5417;42.686;23.244;2023-01-23T05:24:58;3.87;;;3.57;;
10731;SDS011;5417;42.686;23.244;2023-01-23T05:27:25;3.37;;;3.17;;
10731;SDS011;5417;42.686;23.244;2023-01-23T05:29:52;3.93;;;3.63;;
10731;SDS011;5417;42.686;23.244;2023-01-23T05:32:20;3.30;;;3.10;;
10731;SDS011;5417;42.686;23.244;2023-01-23T05:34:47;3.60;;;3.30;;
10731;SDS011;5417;42.686;23.244;2023-01-23T05:37:14;2.80;;;2.60;;
10731;SDS011;5417;42.686;23.244;2023-01-23T05:39:41;3.00;;;2.80;;
10731;SDS011;5417;42.686;23.244;2023-01-23T05:42:08;3.43;;;3.23;;
10731;SDS011;5417;42.686;23.244;2023-01-23T05:44:35;3.70;;;3.40;;
10731;SDS011;5417;42.686;23.244;2023-01-23T05:47:03;3.07;;;2.87;;
10731;SDS011;5417;42.686;23.244;2023-01-23T05:49:31;2.90;;;2.70;;
10731;SDS011;5417;42.686;23.244;2023-01-23T05:51:58;3.20;;;3.00;;
10731;SDS011;5417;42.686;23.244;2023-01-23T05:54:25;2.83;;;2.63;;
10731;SDS011;5417;42.686;23.244;2023-01-23T05:56:53;3.13;;;2.80;;
10731;SDS011;5417;42.686;23.244;2023-01-23T05:59:20;3.30;;;3.10;;
10731;SDS011;5417;42.686;23.244;2023-01-23T06:01:47;3.70;;;3.40;;
10731;SDS011;5417;42.686;23.244;2023-01-23T06:04:14;2.97;;;2.77;;
10731;SDS011;5417;42.686;23.244;2023-01-23T06:06:42;3.03;;;2.80;;
10731;SDS011;5417;42.686;23.244;2023-01-23T06:09:09;3.30;;;3.03;;
10731;SDS011;5417;42.686;23.244;2023-01-23T06:11:36;3.00;;;2.80;;
10731;SDS011;5417;42.686;23.244;2023-01-23T06:14:04;2.73;;;2.53;;
10731;SDS011;5417;42.686;23.244;2023-01-23T06:16:31;2.50;;;2.30;;
10731;SDS011;5417;42.686;23.244;2023-01-23T06:18:58;3.00;;;2.80;;
10731;SDS011;5417;42.686;23.244;2023-01-23T06:21:25;2.23;;;2.10;;
10731;SDS011;5417;42.686;23.244;2023-01-23T06:23:53;2.40;;;2.23;;
10731;SDS011;5417;42.686;23.244;2023-01-23T06:26:21;2.47;;;2.30;;
10731;SDS011;5417;42.686;23.244;2023-01-23T06:28:48;2.10;;;2.00;;
10731;SDS011;5417;42.686;23.244;2023-01-23T06:31:15;2.20;;;2.10;;
10731;SDS011;5417;42.686;23.244;2023-01-23T06:33:42;3.50;;;2.63;;
10731;SDS011;5417;42.686;23.244;2023-01-23T06:36:09;3.40;;;2.13;;
10731;SDS011;5417;42.686;23.244;2023-01-23T06:38:36;2.37;;;2.23;;
10731;SDS011;5417;42.686;23.244;2023-01-23T06:41:04;2.60;;;2.40;;
10731;SDS011;5417;42.686;23.244;2023-01-23T06:43:33;4.63;;;4.23;;
10731;SDS011;5417;42.686;23.244;2023-01-23T06:46:00;3.40;;;3.00;;
10731;SDS011;5417;42.686;23.244;2023-01-23T06:48:26;3.70;;;3.40;;
10731;SDS011;5417;42.686;23.244;2023-01-23T06:50:57;3.47;;;3.17;;
10731;SDS011;5417;42.686;23.244;2023-01-23T06:53:25;2.73;;;2.53;;
10731;SDS011;5417;42.686;23.244;2023-01-23T06:55:52;3.70;;;3.40;;
10731;SDS011;5417;42.686;23.244;2023-01-23T06:58:21;3.20;;;3.00;;
10731;SDS011;5417;42.686;23.244;2023-01-23T07:00:48;4.43;;;4.03;;
10731;SDS011;5417;42.686;23.244;2023-01-23T07:03:15;3.90;;;3.53;;
10731;SDS011;5417;42.686;23.244;2023-01-23T07:05:42;4.97;;;4.57;;
10731;SDS011;5417;42.686;23.244;2023-01-23T07:08:09;5.27;;;4.63;;
10731;SDS011;5417;42.686;23.244;2023-01-23T07:10:36;5.97;;;5.40;;
10731;SDS011;5417;42.686;23.244;2023-01-23T07:13:03;8.40;;;7.63;;
10731;SDS011;5417;42.686;23.244;2023-01-23T07:15:32;4.70;;;4.30;;
10731;SDS011;5417;42.686;23.244;2023-01-23T07:17:59;4.90;;;4.50;;
10731;SDS011;5417;42.686;23.244;2023-01-23T07:20:27;5.00;;;4.60;;
10731;SDS011;5417;42.686;23.244;2023-01-23T07:22:54;5.10;;;4.70;;
10731;SDS011;5417;42.686;23.244;2023-01-23T07:25:22;4.90;;;4.50;;
10731;SDS011;5417;42.686;23.244;2023-01-23T07:27:50;5.77;;;5.20;;
10731;SDS011;5417;42.686;23.244;2023-01-23T07:30:17;5.80;;;4.87;;
10731;SDS011;5417;42.686;23.244;2023-01-23T07:32:45;6.97;;;6.27;;
10731;SDS011;5417;42.686;23.244;2023-01-23T07:35:12;8.20;;;7.23;;
10731;SDS011;5417;42.686;23.244;2023-01-23T07:37:39;7.73;;;7.00;;
10731;SDS011;5417;42.686;23.244;2023-01-23T07:40:07;7.67;;;6.87;;
10731;SDS011;5417;42.686;23.244;2023-01-23T07:42:35;7.50;;;6.73;;
10731;SDS011;5417;42.686;23.244;2023-01-23T07:45:02;10.43;;;9.07;;
10731;SDS011;5417;42.686;23.244;2023-01-23T07:47:29;6.63;;;6.03;;
10731;SDS011;5417;42.686;23.244;2023-01-23T07:49:57;9.00;;;7.80;;
10731;SDS011;5417;42.686;23.244;2023-01-23T07:52:24;5.97;;;5.43;;
10731;SDS011;5417;42.686;23.244;2023-01-23T07:54:51;8.33;;;6.53;;
10731;SDS011;5417;42.686;23.244;2023-01-23T07:57:19;6.03;;;5.53;;
10731;SDS011;5417;42.686;23.244;2023-01-23T07:59:46;7.03;;;6.37;;
10731;SDS011;5417;42.686;23.244;2023-01-23T08:02:13;7.27;;;6.57;;
10731;SDS011;5417;42.686;23.244;2023-01-23T08:04:39;6.93;;;6.23;;
10731;SDS011;5417;42.686;23.244;2023-01-23T08:07:08;8.13;;;6.60;;
10731;SDS011;5417;42.686;23.244;2023-01-23T08:09:35;10.50;;;8.77;;
10731;SDS011;5417;42.686;23.244;2023-01-23T08:12:03;6.10;;;5.60;;
10731;SDS011;5417;42.686;23.244;2023-01-23T08:14:31;7.73;;;7.03;;
10731;SDS011;5417;42.686;23.244;2023-01-23T08:16:58;5.87;;;5.37;;
10731;SDS011;5417;42.686;23.244;2023-01-23T08:19:26;5.83;;;5.27;;
10731;SDS011;5417;42.686;23.244;2023-01-23T08:22:04;5.83;;;5.33;;
10731;SDS011;5417;42.686;23.244;2023-01-23T08:24:43;5.57;;;5.07;;
10731;SDS011;5417;42.686;23.244;2023-01-23T08:27:21;5.97;;;5.37;;
10731;SDS011;5417;42.686;23.244;2023-01-23T08:29:49;5.90;;;5.30;;
10731;SDS011;5417;42.686;23.244;2023-01-23T08:32:17;5.90;;;5.30;;
10731;SDS011;5417;42.686;23.244;2023-01-23T08:34:44;5.97;;;5.17;;
10731;SDS011;5417;42.686;23.244;2023-01-23T08:37:13;5.53;;;4.60;;
10731;SDS011;5417;42.686;23.244;2023-01-23T08:39:42;3.93;;;3.53;;
10731;SDS011;5417;42.686;23.244;2023-01-23T08:42:10;4.90;;;4.50;;
10731;SDS011;5417;42.686;23.244;2023-01-23T08:44:39;5.23;;;4.73;;
10731;SDS011;5417;42.686;23.244;2023-01-23T08:47:06;4.10;;;3.80;;
10731;SDS011;5417;42.686;23.244;2023-01-23T08:49:35;5.20;;;4.70;;
10731;SDS011;5417;42.686;23.244;2023-01-23T08:52:07;4.53;;;4.20;;
10731;SDS011;5417;42.686;23.244;2023-01-23T08:54:40;3.87;;;3.57;;
10731;SDS011;5417;42.686;23.244;2023-01-23T08:57:13;4.70;;;4.27;;
10731;SDS011;5417;42.686;23.244;2023-01-23T08:59:54;4.27;;;3.90;;
10731;SDS011;5417;42.686;23.244;2023-01-23T09:02:34;4.30;;;3.83;;
10731;SDS011;5417;42.686;23.244;2023-01-23T09:05:07;3.63;;;3.33;;
10731;SDS011;5417;42.686;23.244;2023-01-23T09:07:41;4.00;;;3.70;;
10731;SDS011;5417;42.686;23.244;2023-01-23T09:10:10;4.63;;;4.23;;
10731;SDS011;5417;42.686;23.244;2023-01-23T09:12:38;4.77;;;4.47;;
10731;SDS011;5417;42.686;23.244;2023-01-23T09:15:07;4.53;;;4.13;;
10731;SDS011;5417;42.686;23.244;2023-01-23T09:17:35;4.17;;;3.87;;
10731;SDS011;5417;42.686;23.244;2023-01-23T09:20:02;3.50;;;3.20;;
10731;SDS011;5417;42.686;23.244;2023-01-23T09:22:31;4.80;;;4.40;;
10731;SDS011;5417;42.686;23.244;2023-01-23T09:24:58;4.87;;;4.40;;
10731;SDS011;5417;42.686;23.244;2023-01-23T09:27:26;4.80;;;4.40;;
10731;SDS011;5417;42.686;23.244;2023-01-23T09:29:53;4.07;;;3.67;;
10731;SDS011;5417;42.686;23.244;2023-01-23T09:32:21;4.27;;;3.97;;
10731;SDS011;5417;42.686;23.244;2023-01-23T09:34:48;4.73;;;4.27;;
10731;SDS011;5417;42.686;23.244;2023-01-23T09:37:15;5.60;;;3.70;;
10731;SDS011;5417;42.686;23.244;2023-01-23T09:39:42;3.73;;;3.43;;
10731;SDS011;5417;42.686;23.244;2023-01-23T09:42:11;4.73;;;4.30;;
10731;SDS011;5417;42.686;23.244;2023-01-23T09:44:44;6.10;;;4.53;;
10731;SDS011;5417;42.686;23.244;2023-01-23T09:47:16;5.33;;;4.30;;
10731;SDS011;5417;42.686;23.244;2023-01-23T09:49:49;4.77;;;4.37;;
10731;SDS011;5417;42.686;23.244;2023-01-23T09:52:25;4.70;;;4.20;;
10731;SDS011;5417;42.686;23.244;2023-01-23T09:54:57;4.83;;;4.40;;
10731;SDS011;5417;42.686;23.244;2023-01-23T09:57:29;4.73;;;4.33;;
10731;SDS011;5417;42.686;23.244;2023-01-23T10:00:04;7.07;;;4.30;;
10731;SDS011;5417;42.686;23.244;2023-01-23T10:02:40;4.77;;;4.30;;
10731;SDS011;5417;42.686;23.244;2023-01-23T10:05:11;5.13;;;4.70;;
10731;SDS011;5417;42.686;23.244;2023-01-23T10:07:48;5.23;;;4.83;;
10731;SDS011;5417;42.686;23.244;2023-01-23T10:13:17;5.57;;;5.07;;
10731;SDS011;5417;42.686;23.244;2023-01-23T10:15:59;4.57;;;4.20;;
10731;SDS011;5417;42.686;23.244;2023-01-23T10:18:39;4.90;;;4.50;;
10731;SDS011;5417;42.686;23.244;2023-01-23T10:21:15;5.83;;;4.60;;
10731;SDS011;5417;42.686;23.244;2023-01-23T10:23:55;4.83;;;4.43;;
10731;SDS011;5417;42.686;23.244;2023-01-23T10:26:33;4.57;;;4.13;;
10731;SDS011;5417;42.686;23.244;2023-01-23T10:29:10;7.23;;;6.47;;
10731;SDS011;5417;42.686;23.244;2023-01-23T10:31:45;5.20;;;4.80;;
10731;SDS011;5417;42.686;23.244;2023-01-23T10:34:24;5.83;;;5.43;;
10731;SDS011;5417;42.686;23.244;2023-01-23T10:37:06;4.70;;;4.40;;
10731;SDS011;5417;42.686;23.244;2023-01-23T10:39:43;5.50;;;4.83;;
10731;SDS011;5417;42.686;23.244;2023-01-23T10:42:16;5.50;;;5.00;;
10731;SDS011;5417;42.686;23.244;2023-01-23T10:44:46;5.33;;;4.90;;
10731;SDS011;5417;42.686;23.244;2023-01-23T10:47:15;4.87;;;4.47;;
10731;SDS011;5417;42.686;23.244;2023-01-23T10:49:45;5.90;;;4.80;;
10731;SDS011;5417;42.686;23.244;2023-01-23T10:52:31;5.37;;;4.87;;
10731;SDS011;5417;42.686;23.244;2023-01-23T10:55:01;5.80;;;5.30;;
10731;SDS011;5417;42.686;23.244;2023-01-23T10:57:29;5.77;;;5.37;;
10731;SDS011;5417;42.686;23.244;2023-01-23T11:00:03;7.70;;;5.73;;
10731;SDS011;5417;42.686;23.244;2023-01-23T11:02:35;6.23;;;5.63;;
10731;SDS011;5417;42.686;23.244;2023-01-23T11:05:30;5.67;;;5.23;;
10731;SDS011;5417;42.686;23.244;2023-01-23T11:08:07;5.87;;;5.37;;
10731;SDS011;5417;42.686;23.244;2023-01-23T11:10:48;5.57;;;5.17;;
10731;SDS011;5417;42.686;23.244;2023-01-23T11:13:20;5.70;;;5.30;;
10731;SDS011;5417;42.686;23.244;2023-01-23T11:15:52;6.83;;;6.13;;
10731;SDS011;5417;42.686;23.244;2023-01-23T11:18:28;6.33;;;5.73;;
10731;SDS011;5417;42.686;23.244;2023-01-23T11:20:59;7.00;;;6.37;;
10731;SDS011;5417;42.686;23.244;2023-01-23T11:23:27;7.17;;;6.57;;
10731;SDS011;5417;42.686;23.244;2023-01-23T11:25:55;7.27;;;6.67;;
10731;SDS011;5417;42.686;23.244;2023-01-23T11:28:24;6.97;;;6.37;;
10731;SDS011;5417;42.686;23.244;2023-01-23T11:30:57;7.70;;;7.03;;
10731;SDS011;5417;42.686;23.244;2023-01-23T11:33:39;7.60;;;6.97;;
10731;SDS011;5417;42.686;23.244;2023-01-23T11:39:02;8.33;;;7.53;;
10731;SDS011;5417;42.686;23.244;2023-01-23T11:41:40;7.83;;;7.00;;
10731;SDS011;5417;42.686;23.244;2023-01-23T11:44:11;7.10;;;6.47;;
10731;SDS011;5417;42.686;23.244;2023-01-23T11:46:50;8.10;;;7.30;;
10731;SDS011;5417;42.686;23.244;2023-01-23T11:49:35;7.50;;;6.90;;
10731;SDS011;5417;42.686;23.244;2023-01-23T11:52:22;9.63;;;6.90;;
10731;SDS011;5417;42.686;23.244;2023-01-23T11:55:04;7.90;;;7.10;;
10731;SDS011;5417;42.686;23.244;2023-01-23T11:58:01;6.33;;;5.83;;
10731;SDS011;5417;42.686;23.244;2023-01-23T12:00:40;6.57;;;5.97;;
10731;SDS011;5417;42.686;23.244;2023-01-23T12:03:17;6.30;;;5.80;;
10731;SDS011;5417;42.686;23.244;2023-01-23T12:06:09;6.80;;;6.10;;
10731;SDS011;5417;42.686;23.244;2023-01-23T12:08:53;6.90;;;6.03;;
10731;SDS011;5417;42.686;23.244;2023-01-23T12:11:29;6.40;;;5.90;;
10731;SDS011;5417;42.686;23.244;2023-01-23T12:14:10;6.67;;;6.17;;
10731;SDS011;5417;42.686;23.244;2023-01-23T12:16:45;6.13;;;5.63;;
10731;SDS011;5417;42.686;23.244;2023-01-23T12:19:28;6.33;;;5.83;;
10731;SDS011;5417;42.686;23.244;2023-01-23T12:22:11;6.33;;;5.83;;
10731;SDS011;5417;42.686;23.244;2023-01-23T12:24:51;11.30;;;9.13;;
10731;SDS011;5417;42.686;23.244;2023-01-23T12:27:28;7.83;;;7.10;;
10731;SDS011;5417;42.686;23.244;2023-01-23T12:30:10;6.50;;;5.93;;
10731;SDS011;5417;42.686;23.244;2023-01-23T12:33:18;7.83;;;7.03;;
10731;SDS011;5417;42.686;23.244;2023-01-23T12:36:00;6.50;;;6.00;;
10731;SDS011;5417;42.686;23.244;2023-01-23T12:38:46;7.43;;;6.77;;
10731;SDS011;5417;42.686;23.244;2023-01-23T12:41:26;6.87;;;6.27;;
10731;SDS011;5417;42.686;23.244;2023-01-23T12:44:05;7.50;;;6.77;;
10731;SDS011;5417;42.686;23.244;2023-01-23T12:46:42;7.20;;;6.60;;
10731;SDS011;5417;42.686;23.244;2023-01-23T12:49:18;10.93;;;9.80;;
10731;SDS011;5417;42.686;23.244;2023-01-23T12:51:55;7.60;;;6.90;;
10731;SDS011;5417;42.686;23.244;2023-01-23T12:54:34;6.73;;;6.03;;
10731;SDS011;5417;42.686;23.244;2023-01-23T12:57:06;7.17;;;6.57;;
10731;SDS011;5417;42.686;23.244;2023-01-23T12:59:40;6.97;;;6.27;;
10731;SDS011;5417;42.686;23.244;2023-01-23T13:02:21;8.00;;;7.20;;
10731;SDS011;5417;42.686;23.244;2023-01-23T13:05:02;6.93;;;6.23;;
10731;SDS011;5417;42.686;23.244;2023-01-23T13:07:41;7.57;;;6.87;;
10731;SDS011;5417;42.686;23.244;2023-01-23T13:10:22;7.80;;;7.10;;
10731;SDS011;5417;42.686;23.244;2023-01-23T13:13:15;6.57;;;6.07;;
10731;SDS011;5417;42.686;23.244;2023-01-23T13:15:43;5.80;;;5.40;;
10731;SDS011;5417;42.686;23.244;2023-01-23T13:18:29;7.27;;;6.47;;
10731;SDS011;5417;42.686;23.244;2023-01-23T13:21:18;6.57;;;6.07;;
10731;SDS011;5417;42.686;23.244;2023-01-23T13:24:23;6.43;;;5.93;;
10731;SDS011;5417;42.686;23.244;2023-01-23T13:27:37;6.80;;;6.20;;
10731;SDS011;5417;42.686;23.244;2023-01-23T13:36:26;6.80;;;6.30;;
10731;SDS011;5417;42.686;23.244;2023-01-23T13:38:59;7.50;;;6.90;;
10731;SDS011;5417;42.686;23.244;2023-01-23T13:41:27;7.50;;;7.00;;
10731;SDS011;5417;42.686;23.244;2023-01-23T13:44:03;6.93;;;6.33;;
10731;SDS011;5417;42.686;23.244;2023-01-23T13:49:53;6.80;;;6.10;;
10731;SDS011;5417;42.686;23.244;2023-01-23T13:52:27;7.20;;;6.60;;
10731;SDS011;5417;42.686;23.244;2023-01-23T13:55:16;6.37;;;5.77;;
10731;SDS011;5417;42.686;23.244;2023-01-23T13:58:02;7.83;;;7.10;;
10731;SDS011;5417;42.686;23.244;2023-01-23T14:00:36;7.03;;;6.40;;
10731;SDS011;5417;42.686;23.244;2023-01-23T14:03:13;7.77;;;7.07;;
10731;SDS011;5417;42.686;23.244;2023-01-23T14:06:06;7.30;;;6.60;;
10731;SDS011;5417;42.686;23.244;2023-01-23T14:08:44;7.20;;;6.50;;
10731;SDS011;5417;42.686;23.244;2023-01-23T14:11:12;7.67;;;6.97;;
10731;SDS011;5417;42.686;23.244;2023-01-23T14:13:48;7.80;;;7.10;;
10731;SDS011;5417;42.686;23.244;2023-01-23T14:16:41;7.47;;;6.83;;
10731;SDS011;5417;42.686;23.244;2023-01-23T14:19:18;6.77;;;6.07;;
10731;SDS011;5417;42.686;23.244;2023-01-23T14:21:52;8.53;;;6.67;;
10731;SDS011;5417;42.686;23.244;2023-01-23T14:24:23;8.00;;;7.20;;
10731;SDS011;5417;42.686;23.244;2023-01-23T14:26:58;8.47;;;7.20;;
10731;SDS011;5417;42.686;23.244;2023-01-23T14:29:26;7.53;;;6.87;;
10731;SDS011;5417;42.686;23.244;2023-01-23T14:31:58;7.70;;;6.90;;
10731;SDS011;5417;42.686;23.244;2023-01-23T14:34:37;8.07;;;7.27;;
10731;SDS011;5417;42.686;23.244;2023-01-23T14:37:05;7.10;;;6.40;;
10731;SDS011;5417;42.686;23.244;2023-01-23T14:39:36;6.87;;;6.33;;
10731;SDS011;5417;42.686;23.244;2023-01-23T14:42:04;6.57;;;5.50;;
10731;SDS011;5417;42.686;23.244;2023-01-23T14:44:33;7.83;;;7.07;;
10731;SDS011;5417;42.686;23.244;2023-01-23T14:47:10;10.60;;;8.93;;
10731;SDS011;5417;42.686;23.244;2023-01-23T14:49:43;6.63;;;6.03;;
10731;SDS011;5417;42.686;23.244;2023-01-23T14:52:19;7.33;;;6.43;;
10731;SDS011;5417;42.686;23.244;2023-01-23T14:54:47;6.90;;;6.40;;
10731;SDS011;5417;42.686;23.244;2023-01-23T14:57:14;6.43;;;5.80;;
10731;SDS011;5417;42.686;23.244;2023-01-23T14:59:42;6.83;;;6.23;;
10731;SDS011;5417;42.686;23.244;2023-01-23T15:02:26;6.67;;;6.07;;
10731;SDS011;5417;42.686;23.244;2023-01-23T15:05:16;6.67;;;6.07;;
10731;SDS011;5417;42.686;23.244;2023-01-23T15:07:45;6.17;;;5.67;;
10731;SDS011;5417;42.686;23.244;2023-01-23T15:10:15;6.53;;;6.03;;
10731;SDS011;5417;42.686;23.244;2023-01-23T15:12:46;6.73;;;6.17;;
10731;SDS011;5417;42.686;23.244;2023-01-23T15:15:16;6.17;;;5.67;;
10731;SDS011;5417;42.686;23.244;2023-01-23T15:17:45;5.63;;;4.83;;
10731;SDS011;5417;42.686;23.244;2023-01-23T15:20:29;6.10;;;5.60;;
10731;SDS011;5417;42.686;23.244;2023-01-23T15:23:12;6.00;;;5.50;;
10731;SDS011;5417;42.686;23.244;2023-01-23T15:26:07;5.53;;;5.07;;
10731;SDS011;5417;42.686;23.244;2023-01-23T15:28:48;6.43;;;5.90;;
10731;SDS011;5417;42.686;23.244;2023-01-23T15:31:23;5.97;;;5.47;;
10731;SDS011;5417;42.686;23.244;2023-01-23T15:33:55;5.57;;;5.17;;